Marion, VA

4:30 AM EDT on September 20, 2019 (GMT -0400)
Mountain Empire

Weather History for KMKJ - August, 2019

Change the Weather History Date:

Monday, August 19, 2019

  Actual Average (KBLF) Record (KBLF)
Temperature  
Mean Temperature 74 °F -  
Max Temperature 85 °F 78 °F 91 °F (2007)
Min Temperature 64 °F 61 °F 44 °F (1922)
Cooling Degree Days 10    
Growing Degree Days 24 (Base 50)    
Moisture  
Dew Point 70 °F    
Average Humidity 85    
Maximum Humidity 100    
Minimum Humidity 62    
Precipitation  
Precipitation 0.00 in - - ()
Sea Level Pressure  
Sea Level Pressure 30.19 in    
Wind  
Wind Speed 1 mph ()    
Max Wind Speed 8 mph    
Max Gust Speed -    
Visibility 9.0 miles    
Events      
Averages and records for this station are not official NWS values.
T = Trace of Precipitation, MM = Missing Value Source: Averaged Metar Reports

Daily Weather History Graph

Daily Weather History Graph

Search for Another Location

Airport or City:

Astronomy

Aug. 19, 2019 Rise Set
Actual Time 6:45 AM EDT 8:11 PM EDT
Civil Twilight 6:18 AM EDT 8:39 PM EDT
Nautical Twilight 5:45 AM EDT 9:11 PM EDT
Astronomical Twilight 5:10 AM EDT 9:46 PM EDT
Moon 10:38 PM EDT (8/19) 10:20 AM EDT (8/19)
Length of Visible Light 14h 21m
Length of Day
13h 26m
Waning Gibbous, 85% of the Moon is Illuminated
Aug 19
Waning Gibbous
Aug 23
Last Quarter
Aug 30
New
Sep 5
First Quarter
Sep 14
Full

Hourly Weather History & Observations

Time (EDT) Temp. Heat Index Dew Point Humidity Pressure Visibility Wind Dir Wind Speed Gust Speed Precip Events Conditions
12:15 AM 70.0 °F - 69.8 °F 99% 30.16 in 10.0 mi Calm Calm - N/A   Clear
12:35 AM 69.1 °F - 69.1 °F 100% 30.16 in 10.0 mi Calm Calm - N/A   Clear
12:55 AM 69.3 °F - 68.9 °F 99% 30.16 in 10.0 mi Calm Calm - N/A   Clear
1:15 AM 68.5 °F - 68.5 °F 100% 30.16 in 10.0 mi Calm Calm - N/A   Clear
1:35 AM 68.4 °F - 68.4 °F 100% 30.16 in 10.0 mi Calm Calm - N/A   Clear
1:55 AM 68.2 °F - 68.2 °F 100% 30.16 in 10.0 mi Calm Calm - N/A   Clear
2:15 AM 68.0 °F - 68.0 °F 100% 30.16 in 10.0 mi Calm Calm - N/A   Clear
2:35 AM 67.3 °F - 67.3 °F 100% 30.16 in 7.0 mi Calm Calm - N/A   Clear
2:55 AM 67.1 °F - 67.1 °F 100% 30.16 in 5.0 mi Calm Calm - N/A   Clear
3:15 AM 66.7 °F - 66.7 °F 100% 30.16 in 10.0 mi Calm Calm - N/A   Clear
3:55 AM 65.8 °F - 65.8 °F 100% 30.16 in 4.0 mi Calm Calm - N/A   Clear
4:15 AM 65.8 °F - 65.8 °F 100% 30.16 in 4.0 mi Calm Calm - N/A   Clear
4:35 AM 65.7 °F - 65.7 °F 100% 30.16 in 2.0 mi Calm Calm - N/A   Scattered Clouds
4:55 AM 65.7 °F - 65.7 °F 100% 30.16 in 1.8 mi Calm Calm - N/A   Mostly Cloudy
5:15 AM 65.7 °F - 65.7 °F 100% 30.17 in 5.0 mi Calm Calm - N/A   Scattered Clouds
5:35 AM 65.8 °F - 65.8 °F 100% 30.17 in 4.0 mi Calm Calm - N/A   Clear
5:55 AM 65.1 °F - 65.1 °F 100% 30.17 in 5.0 mi Calm Calm - N/A   Clear
6:15 AM 64.8 °F - 64.8 °F 100% 30.17 in 7.0 mi Calm Calm - N/A   Clear
6:35 AM 64.9 °F - 64.9 °F 100% 30.18 in 10.0 mi Calm Calm - N/A   Clear
6:55 AM 64.9 °F - 64.9 °F 100% 30.19 in 7.0 mi Calm Calm - N/A   Clear
7:15 AM 65.3 °F - 65.3 °F 100% 30.19 in 10.0 mi Calm Calm - N/A   Clear
7:35 AM 65.1 °F - 65.1 °F 100% 30.20 in 7.0 mi Calm Calm - N/A   Clear
7:55 AM 67.1 °F - 67.1 °F 100% 30.20 in 10.0 mi Calm Calm - N/A   Clear
8:15 AM 70.2 °F - 68.7 °F 95% 30.20 in 10.0 mi Calm Calm - N/A   Clear
8:35 AM 73.0 °F - 70.3 °F 91% 30.20 in 10.0 mi Calm Calm - N/A   Clear
8:55 AM 75.7 °F - 71.6 °F 87% 30.21 in 10.0 mi West 3.5 mph - N/A   Clear
9:15 AM 75.2 °F - 70.5 °F 85% 30.21 in 10.0 mi West 3.5 mph - N/A   Clear
10:55 AM 78.8 °F - 69.3 °F 72% 30.23 in 10.0 mi SSW 4.6 mph - N/A   Unknown
11:15 AM 78.8 °F - 69.1 °F 72% 30.23 in 10.0 mi SW 5.8 mph - N/A   Clear
11:35 AM 81.0 °F 84.6 °F 70.5 °F 70% 30.23 in 10.0 mi SW 5.8 mph - N/A   Clear
11:55 AM 83.3 °F 88.4 °F 71.6 °F 68% 30.23 in 10.0 mi SW 5.8 mph - N/A   Clear
12:15 PM 82.8 °F 87.4 °F 71.2 °F 68% 30.23 in 10.0 mi WSW 5.8 mph - N/A   Clear
12:35 PM 84.2 °F 89.3 °F 71.2 °F 65% 30.23 in 10.0 mi SW 5.8 mph - N/A   Clear
12:55 PM 85.1 °F 90.8 °F 71.6 °F 64% 30.23 in 10.0 mi SW 6.9 mph - N/A   Scattered Clouds
1:15 PM 84.9 °F 90.1 °F 71.2 °F 63% 30.22 in 10.0 mi SW 4.6 mph - N/A   Scattered Clouds
1:35 PM 85.3 °F 90.8 °F 71.2 °F 63% 30.22 in 10.0 mi WSW 5.8 mph - N/A   Mostly Cloudy
1:55 PM 83.3 °F 88.4 °F 71.8 °F 68% 30.22 in 10.0 mi West 8.1 mph - N/A   Scattered Clouds
2:15 PM 82.4 °F 86.7 °F 71.1 °F 68% 30.22 in 10.0 mi WNW 6.9 mph - N/A   Scattered Clouds
2:35 PM 82.6 °F 88.1 °F 72.7 °F 72% 30.21 in 10.0 mi West 6.9 mph - N/A   Clear
2:55 PM 82.9 °F 88.5 °F 72.7 °F 71% 30.21 in 10.0 mi West 6.9 mph - N/A   Clear
3:15 PM 83.7 °F 89.7 °F 72.9 °F 70% 30.20 in 10.0 mi West 5.8 mph - N/A   Clear
3:35 PM 83.5 °F 89.1 °F 72.5 °F 69% 30.19 in 10.0 mi Calm Calm - N/A   Clear
3:55 PM 83.7 °F 89.4 °F 72.5 °F 69% 30.19 in 10.0 mi West 4.6 mph - N/A   Clear
4:15 PM 83.7 °F 88.6 °F 71.1 °F 66% 30.19 in 10.0 mi WNW 4.6 mph - N/A   Clear
4:35 PM 83.8 °F 88.6 °F 70.9 °F 65% 30.18 in 10.0 mi Calm Calm - N/A   Clear
4:55 PM 84.6 °F 89.4 °F 70.5 °F 63% 30.17 in 10.0 mi WSW 4.6 mph - N/A   Clear
5:15 PM 83.8 °F 88.9 °F 71.2 °F 66% 30.17 in 10.0 mi WSW 4.6 mph - N/A   Clear
5:35 PM 85.8 °F 91.5 °F 71.4 °F 62% 30.16 in 10.0 mi Calm Calm - N/A   Clear
5:55 PM 85.1 °F 90.1 °F 70.9 °F 62% 30.17 in 10.0 mi Calm Calm - N/A   Clear
6:15 PM 84.6 °F 89.1 °F 70.3 °F 62% 30.17 in 10.0 mi Calm Calm - N/A   Clear
6:35 PM 84.4 °F 89.7 °F 71.2 °F 65% 30.17 in 10.0 mi Calm Calm - N/A   Clear
6:55 PM 83.3 °F 87.6 °F 70.3 °F 65% 30.17 in 10.0 mi Calm Calm - N/A   Clear
7:15 PM 80.8 °F 85.1 °F 72.3 °F 75% 30.17 in 10.0 mi Calm Calm - N/A   Clear
7:35 PM 79.2 °F - 72.5 °F 80% 30.18 in 10.0 mi Calm Calm - N/A   Clear
7:55 PM 78.3 °F - 72.7 °F 83% 30.18 in 10.0 mi Calm Calm - N/A   Clear
8:15 PM 77.4 °F - 72.7 °F 85% 30.18 in 10.0 mi Calm Calm - N/A   Clear
8:35 PM 75.4 °F - 72.7 °F 91% 30.18 in 10.0 mi Calm Calm - N/A   Clear
8:55 PM 74.5 °F - 72.1 °F 92% 30.19 in 10.0 mi Calm Calm - N/A   Clear
9:15 PM 73.4 °F - 72.5 °F 97% 30.20 in 10.0 mi Calm Calm - N/A   Clear
9:35 PM 73.0 °F - 72.1 °F 97% 30.21 in 10.0 mi Calm Calm - N/A   Clear
9:55 PM 72.1 °F - 71.6 °F 98% 30.22 in 10.0 mi Calm Calm - N/A   Clear
10:15 PM 71.1 °F - 71.1 °F 100% 30.23 in 10.0 mi Calm Calm - N/A   Clear
10:35 PM 71.2 °F - 70.7 °F 98% 30.23 in 10.0 mi Calm Calm - N/A   Clear
10:55 PM 70.3 °F - 70.3 °F 100% 30.23 in 10.0 mi Calm Calm - N/A   Clear
11:15 PM 70.9 °F - 70.7 °F 99% 30.23 in 10.0 mi Calm Calm - N/A   Clear
11:35 PM 70.0 °F - 70.0 °F 100% 30.23 in 7.0 mi Calm Calm - N/A   Clear
11:55 PM 69.8 °F - 69.8 °F 100% 30.23 in 7.0 mi Calm Calm - N/A   Clear